Time;durP1;ratioP1;P1;durP2;ratioP2;P2;SDS_P1;SDS_P2;PMS_P1;PMS_P2;Temp;Humidity;BMP_temperature;BMP_pressure;BME280_temperature;BME280_humidity;BME280_pressure;Samples;Min_cycle;Max_cycle;Signal;HPM_P1;HPM_P2
2024/03/12 00:00:19;;;;;;;;;;;9.20;99.90;;;9.34;81.63;99714.53;4924806;29;19927;-82
2024/03/12 00:02:48;;;;;;;;;;;9.20;99.90;;;9.36;81.46;99731.88;4942375;29;19974;-82
2024/03/12 00:05:19;;;;;;;;;;;9.20;99.90;;;9.38;81.30;99723.69;4925421;29;19927;-82
2024/03/12 00:07:47;;;;;;;;;;;9.20;99.90;;;9.40;81.26;99726.94;4941085;29;20344;-82
2024/03/12 00:10:16;;;;;;;;;;;9.20;99.90;;;9.41;80.98;99720.56;4924497;29;19955;-82
2024/03/12 00:12:47;;;;;;;;;;;9.20;99.90;;;9.42;81.00;99719.53;4924199;29;19938;-82
2024/03/12 00:15:16;;;;;;;;;;;9.20;99.90;;;9.38;80.55;99726.38;4924867;29;19931;-82
2024/03/12 00:17:43;;;;;;;;;;;9.20;99.90;;;9.40;80.84;99733.06;4940819;29;19970;-82
2024/03/12 00:20:17;;;;;;;;;;;9.20;99.90;;;9.40;80.62;99740.25;4940362;29;19927;-82
2024/03/12 00:22:47;;;;;;;;;;;9.20;99.90;;;9.41;80.52;99741.88;4941486;29;20459;-82
2024/03/12 00:25:17;;;;;;;;;;;9.20;99.90;;;9.40;80.50;99754.38;4940955;29;19931;-82
2024/03/12 00:27:44;;;;;;;;;;;9.20;99.90;;;9.38;80.62;99748.47;4939788;29;19931;-82
2024/03/12 00:30:13;;;;;;;;;;;9.20;99.90;;;9.37;80.63;99752.16;4941293;29;19958;-82
2024/03/12 00:32:41;;;;;;;;;;;9.20;99.90;;;9.32;80.75;99751.16;4942095;29;19969;-82
2024/03/12 00:35:10;;;;;;;;;;;9.20;99.90;;;9.33;80.86;99750.97;4923712;29;20447;-82
2024/03/12 00:37:39;;;;;;;;;;;9.20;99.90;;;9.32;80.86;99754.69;4940953;29;19931;-82
2024/03/12 00:40:11;;;;;;;;;;;9.20;99.90;;;9.34;80.89;99751.78;4924349;29;19927;-82
2024/03/12 00:42:39;;;;;;;;;;;9.10;99.90;;;9.33;80.89;99753.63;4940579;29;19970;-82
2024/03/12 00:45:11;;;;;;;;;;;9.20;99.90;;;9.24;81.22;99765.59;4941854;29;20396;-82
2024/03/12 00:47:40;;;;;;;;;;;9.10;99.90;;;9.29;81.23;99771.06;4939820;29;19927;-82
2024/03/12 00:50:08;;;;;;;;;;;9.10;99.90;;;9.26;81.00;99763.50;4941327;29;19950;-82
2024/03/12 00:52:37;;;;;;;;;;;9.10;99.90;;;9.26;81.27;99766.97;4941810;29;19933;-82
2024/03/12 00:55:05;;;;;;;;;;;9.10;99.90;;;9.28;81.31;99775.56;4939858;29;19935;-82
2024/03/12 00:57:35;;;;;;;;;;;9.20;99.90;;;9.32;81.21;99780.44;4941972;29;19962;-82
2024/03/12 01:00:03;;;;;;;;;;;9.10;99.90;;;9.33;81.29;99774.91;4893467;29;20307;-82
2024/03/12 01:02:32;;;;;;;;;;;9.20;99.90;;;9.35;81.25;99772.84;4941474;29;19927;-82
2024/03/12 01:04:59;;;;;;;;;;;9.20;99.90;;;9.37;81.20;99776.13;4941666;29;19950;-82
2024/03/12 01:07:27;;;;;;;;;;;9.20;99.90;;;9.37;81.20;99777.94;4941517;29;19927;-82
2024/03/12 01:09:55;;;;;;;;;;;9.20;99.90;;;9.38;81.29;99777.72;4941665;29;19934;-82
2024/03/12 01:12:24;;;;;;;;;;;9.20;99.90;;;9.33;81.27;99787.41;4924348;29;19943;-82
2024/03/12 01:14:53;;;;;;;;;;;9.20;99.90;;;9.32;81.27;99785.75;4941061;29;19927;-82
2024/03/12 01:17:22;;;;;;;;;;;9.10;99.90;;;9.27;81.73;99786.41;4924417;29;19926;-82
2024/03/12 01:19:49;;;;;;;;;;;9.10;99.90;;;9.29;81.85;99790.50;4941637;29;19931;-82
2024/03/12 01:22:16;;;;;;;;;;;9.10;99.90;;;9.26;81.87;99790.94;4943293;29;19927;-82
2024/03/12 01:24:43;;;;;;;;;;;9.10;99.90;;;9.31;81.96;99797.44;4926331;29;19926;-82
2024/03/12 01:27:13;;;;;;;;;;;9.10;99.90;;;9.29;81.93;99798.47;4942177;29;20353;-82
2024/03/12 01:29:41;;;;;;;;;;;9.20;99.90;;;9.28;81.80;99791.53;4925497;29;20348;-82
2024/03/12 01:32:10;;;;;;;;;;;9.20;99.90;;;9.29;81.90;99793.16;4943216;29;19927;-82
2024/03/12 01:34:37;;;;;;;;;;;9.20;99.90;;;9.29;81.69;99803.81;4925414;29;19927;-82
2024/03/12 01:37:05;;;;;;;;;;;9.20;99.90;;;9.31;81.79;99798.25;4943208;29;19927;-80
2024/03/12 01:39:38;;;;;;;;;;;9.20;99.90;;;9.26;81.89;99803.44;4942899;29;19935;-82
2024/03/12 01:42:05;;;;;;;;;;;9.10;99.90;;;9.25;81.73;99802.63;4942877;29;20339;-82
2024/03/12 01:44:34;;;;;;;;;;;9.10;99.90;;;9.17;82.09;99802.88;4925749;29;19966;-82
2024/03/12 01:47:02;;;;;;;;;;;9.00;99.90;;;9.20;82.38;99806.97;4942726;29;19927;-82
2024/03/12 01:49:31;;;;;;;;;;;9.10;99.90;;;9.20;82.08;99806.97;4924895;29;19966;-82
2024/03/12 01:51:59;;;;;;;;;;;9.10;99.90;;;9.21;82.12;99812.06;4925258;29;19927;-82
2024/03/12 01:54:26;;;;;;;;;;;9.10;99.90;;;9.19;81.95;99819.47;4943219;29;19961;-82
2024/03/12 01:56:53;;;;;;;;;;;9.10;99.90;;;9.15;82.39;99809.47;4942708;29;19927;-82
2024/03/12 01:59:21;;;;;;;;;;;9.00;99.90;;;9.18;82.25;99809.84;4942430;29;19927;-81
2024/03/12 02:01:49;;;;;;;;;;;9.00;99.90;;;9.16;82.17;99814.56;4925184;29;20017;-82
2024/03/12 02:04:16;;;;;;;;;;;9.00;99.90;;;9.16;82.16;99809.25;4941129;29;19978;-82
2024/03/12 02:06:46;;;;;;;;;;;9.00;99.90;;;9.18;82.01;99814.38;4925346;29;20293;-82
2024/03/12 02:09:14;;;;;;;;;;;9.00;99.90;;;9.16;81.93;99819.88;4925235;29;19927;-82
2024/03/12 02:11:42;;;;;;;;;;;9.00;99.90;;;9.16;82.04;99809.25;4942294;29;19927;-82
2024/03/12 02:14:09;;;;;;;;;;;9.00;99.90;;;9.07;82.01;99815.06;4925226;29;19927;-82
2024/03/12 02:16:38;;;;;;;;;;;9.00;99.90;;;9.02;82.58;99810.38;4909084;29;19938;-82
2024/03/12 02:19:06;;;;;;;;;;;8.90;99.90;;;9.02;82.60;99818.38;4924985;29;19931;-82
2024/03/12 02:21:33;;;;;;;;;;;8.90;99.90;;;9.07;82.55;99815.88;4942306;29;19958;-82
2024/03/12 02:24:02;;;;;;;;;;;8.90;99.90;;;9.09;82.45;99810.34;4941903;29;20392;-82
2024/03/12 02:26:29;;;;;;;;;;;9.00;99.90;;;9.04;82.21;99821.63;4942233;29;19934;-82
2024/03/12 02:28:56;;;;;;;;;;;8.90;99.90;;;9.06;82.43;99827.53;4924907;29;19973;-82
2024/03/12 02:31:23;;;;;;;;;;;8.90;99.90;;;9.11;82.38;99827.69;4941020;29;19926;-82
2024/03/12 02:33:52;;;;;;;;;;;9.00;99.90;;;9.04;82.36;99826.97;4924404;29;19927;-82
2024/03/12 02:36:20;;;;;;;;;;;8.90;99.90;;;9.07;82.22;99825.69;4924097;29;20025;-82
2024/03/12 02:38:47;;;;;;;;;;;8.90;99.90;;;9.02;82.19;99829.00;4941936;29;19933;-82
2024/03/12 02:41:16;;;;;;;;;;;8.90;99.90;;;9.05;82.26;99833.91;4925388;29;20018;-82
2024/03/12 02:43:43;;;;;;;;;;;8.90;99.90;;;9.09;82.31;99836.94;4924455;29;20487;-82
2024/03/12 02:46:11;;;;;;;;;;;8.90;99.90;;;9.13;82.08;99846.13;4941313;29;20404;-82
2024/03/12 02:48:38;;;;;;;;;;;9.00;99.90;;;9.14;81.72;99837.09;4941419;29;19931;-82
2024/03/12 02:51:11;;;;;;;;;;;9.00;99.90;;;9.16;81.62;99838.50;4941456;29;20010;-82
2024/03/12 02:53:38;;;;;;;;;;;9.00;99.90;;;9.16;81.58;99838.50;4924070;29;19951;-82
2024/03/12 02:56:06;;;;;;;;;;;9.00;99.90;;;9.18;81.51;99836.47;4924330;29;19941;-82
2024/03/12 02:58:36;;;;;;;;;;;9.00;99.90;;;9.20;81.36;99841.56;4924608;29;19933;-82
2024/03/12 03:01:04;;;;;;;;;;;9.00;99.90;;;9.16;81.16;99838.50;4924526;29;19927;-82
2024/03/12 03:03:33;;;;;;;;;;;9.00;99.90;;;9.14;81.37;99848.56;4923918;29;19934;-82
2024/03/12 03:06:01;;;;;;;;;;;9.00;99.90;;;9.15;81.42;99850.19;4908385;29;19934;-82
2024/03/12 03:08:30;;;;;;;;;;;9.10;99.90;;;9.18;81.44;99849.75;4924128;29;19951;-82
2024/03/12 03:10:58;;;;;;;;;;;9.00;99.90;;;9.16;81.37;99843.00;4940614;29;19927;-82
2024/03/12 03:13:25;;;;;;;;;;;9.00;99.90;;;9.13;81.11;99846.13;4941495;29;19951;-82
2024/03/12 03:15:54;;;;;;;;;;;9.00;99.90;;;9.10;81.47;99850.03;4941516;29;19927;-82
2024/03/12 03:18:21;;;;;;;;;;;8.90;99.90;;;9.08;81.66;99852.09;4923756;29;19927;-82
2024/03/12 03:20:48;;;;;;;;;;;8.90;99.90;;;9.03;81.71;99851.94;4924172;29;19927;-82
2024/03/12 03:23:16;;;;;;;;;;;8.90;99.90;;;9.03;81.85;99854.59;4940520;29;19982;-82
2024/03/12 03:25:43;;;;;;;;;;;8.90;99.90;;;9.05;81.95;99855.19;4923730;29;19927;-82
2024/03/12 03:28:10;;;;;;;;;;;8.90;99.90;;;9.06;81.85;99853.31;4923450;29;20327;-82
2024/03/12 03:30:37;;;;;;;;;;;8.90;99.90;;;9.10;81.78;99851.88;4923698;29;19950;-82
2024/03/12 03:33:08;;;;;;;;;;;9.00;99.90;;;9.09;81.61;99860.88;4923726;29;19978;-82
2024/03/12 03:35:36;;;;;;;;;;;8.90;99.90;;;9.09;81.95;99861.69;4940504;29;19974;-82
2024/03/12 03:38:03;;;;;;;;;;;8.90;99.90;;;9.11;81.86;99867.59;4923638;29;20392;-82
2024/03/12 03:40:30;;;;;;;;;;;8.90;99.90;;;9.08;81.93;99865.41;4923377;29;20034;-82
2024/03/12 03:42:58;;;;;;;;;;;8.90;99.90;;;9.11;81.88;99869.44;4940460;29;20392;-82
2024/03/12 03:45:25;;;;;;;;;;;8.90;99.90;;;9.02;81.93;99877.69;4940604;29;19950;-82
2024/03/12 03:47:54;;;;;;;;;;;8.90;99.90;;;9.01;82.02;99877.91;4922876;29;20373;-82
2024/03/12 03:50:23;;;;;;;;;;;8.90;99.90;;;9.04;82.04;99872.16;4923630;29;19965;-82
2024/03/12 03:52:52;;;;;;;;;;;8.90;99.90;;;9.05;82.14;99876.47;4923100;29;19926;-82
2024/03/12 03:55:21;;;;;;;;;;;8.90;99.90;;;9.06;81.95;99882.59;4923166;29;20311;-82
2024/03/12 03:57:49;;;;;;;;;;;8.90;99.90;;;9.02;81.99;99880.34;4923317;29;19969;-82
2024/03/12 04:00:23;;;;;;;;;;;8.90;99.90;;;9.02;82.16;99887.50;4923024;29;19926;-82
2024/03/12 04:02:50;;;;;;;;;;;8.90;99.90;;;9.03;82.14;99889.16;4940489;29;19927;-82
2024/03/12 04:05:18;;;;;;;;;;;8.90;99.90;;;9.05;82.17;99896.91;4938812;29;19982;-82
2024/03/12 04:07:47;;;;;;;;;;;8.90;99.90;;;9.06;82.04;99899.34;4940877;29;19927;-82
2024/03/12 04:10:15;;;;;;;;;;;8.90;99.90;;;9.08;82.08;99907.94;4940579;29;19934;-82
2024/03/12 04:12:45;;;;;;;;;;;8.90;99.90;;;9.01;81.80;99915.97;4923224;29;20323;-82
2024/03/12 04:15:12;;;;;;;;;;;8.90;99.90;;;8.99;82.19;99917.22;4940798;29;19927;-82
2024/03/12 04:17:43;;;;;;;;;;;8.90;99.90;;;9.03;82.24;99915.75;4923163;29;19962;-82
2024/03/12 04:20:11;;;;;;;;;;;8.90;99.90;;;9.03;82.15;99921.91;4907646;29;19951;-82
2024/03/12 04:22:38;;;;;;;;;;;8.90;99.90;;;9.05;81.87;99921.66;4922352;29;20014;-82
2024/03/12 04:25:08;;;;;;;;;;;8.90;99.90;;;9.02;82.15;99928.22;4939545;29;19927;-82
2024/03/12 04:27:37;;;;;;;;;;;8.90;99.90;;;9.05;82.11;99934.16;4939563;29;19926;-82
2024/03/12 04:30:05;;;;;;;;;;;8.90;99.90;;;8.82;82.07;99924.88;4940478;29;19926;-82
2024/03/12 04:32:32;;;;;;;;;;;8.80;99.90;;;8.85;82.58;99934.28;4938969;29;19927;-82
2024/03/12 04:35:00;;;;;;;;;;;8.80;99.90;;;8.89;82.77;99935.50;4938857;29;19927;-82
2024/03/12 04:37:31;;;;;;;;;;;8.80;99.90;;;8.86;82.48;99944.69;4940295;29;20360;-82
2024/03/12 04:40:06;;;;;;;;;;;8.80;99.90;;;8.91;82.68;99941.41;4924769;29;19931;-82
2024/03/12 04:42:35;;;;;;;;;;;8.80;99.90;;;8.92;82.52;99941.19;4940230;29;19926;-82
2024/03/12 04:45:04;;;;;;;;;;;8.80;99.90;;;8.94;82.49;99936.47;4940059;29;19927;-82
2024/03/12 04:47:32;;;;;;;;;;;8.80;99.90;;;8.91;82.28;99946.72;4923305;29;19931;-82
2024/03/12 04:49:59;;;;;;;;;;;8.80;99.90;;;8.94;82.33;99948.97;4941049;29;19962;-82
2024/03/12 04:52:26;;;;;;;;;;;8.80;99.90;;;8.91;82.33;99952.84;4922797;29;19926;-82
2024/03/12 04:54:53;;;;;;;;;;;8.80;99.90;;;8.53;83.29;99963.44;4942569;29;19930;-82
2024/03/12 04:57:21;;;;;;;;;;;8.60;99.90;;;8.56;83.81;99965.69;4945030;29;19933;-83
2024/03/12 04:59:51;;;;;;;;;;;8.60;99.90;;;8.68;83.66;99968.50;4945115;29;20434;-82
2024/03/12 05:02:19;;;;;;;;;;;8.60;99.90;;;8.71;83.56;99971.56;4945480;29;19927;-82
2024/03/12 05:04:46;;;;;;;;;;;8.70;99.90;;;8.74;83.10;99975.66;4927991;29;19931;-82
2024/03/12 05:07:16;;;;;;;;;;;8.70;99.90;;;8.69;83.51;99978.13;4945057;29;19978;-82
2024/03/12 05:09:44;;;;;;;;;;;8.60;99.90;;;8.71;83.34;99979.53;4927196;29;20073;-83
2024/03/12 05:12:11;;;;;;;;;;;8.60;99.90;;;8.72;83.31;99983.00;4927421;29;20389;-83
2024/03/12 05:14:39;;;;;;;;;;;8.70;99.90;;;8.77;83.36;99991.16;4944218;29;20009;-82
2024/03/12 05:17:07;;;;;;;;;;;8.70;99.90;;;8.73;83.18;100000.56;4925578;29;20021;-81
2024/03/12 05:19:35;;;;;;;;;;;8.30;99.90;;;8.74;83.26;99994.25;4925634;29;20332;-80
2024/03/12 05:22:02;;;;;;;;;;;8.70;99.90;;;8.77;83.29;99996.47;4942155;29;19954;-80
2024/03/12 05:24:33;;;;;;;;;;;8.70;99.90;;;8.77;83.32;100007.94;4942916;29;19990;-80
2024/03/12 05:27:00;;;;;;;;;;;8.70;99.90;;;8.79;83.25;100005.06;4943566;29;19995;-80
2024/03/12 05:29:36;;;;;;;;;;;8.90;99.90;;;8.78;82.90;100003.41;4943567;29;19937;-81
2024/03/12 05:32:17;;;;;;;;;;;8.70;99.90;;;8.83;82.94;100011.56;4926049;29;19926;-81
2024/03/12 05:34:47;;;;;;;;;;;8.70;99.90;;;8.90;82.87;100014.22;4926057;29;19927;-83
2024/03/12 05:37:28;;;;;;;;;;;8.80;99.90;;;8.92;82.71;100020.13;4926988;29;20414;-83
2024/03/12 05:40:12;;;;;;;;;;;8.80;99.90;;;8.91;82.48;100026.50;4944562;29;19937;-83
2024/03/12 05:48:20;;;;;;;;;;;8.80;99.90;;;8.95;82.38;100036.50;4938234;29;19927;-83
2024/03/12 05:50:51;;;;;;;;;;;8.80;99.90;;;8.94;82.14;100034.88;4944028;29;20296;-83
2024/03/12 05:53:19;;;;;;;;;;;8.80;99.90;;;8.96;82.14;100035.47;4927134;29;19954;-82
2024/03/12 05:55:49;;;;;;;;;;;8.80;99.90;;;8.86;82.30;100037.75;4945012;29;19927;-83
2024/03/12 05:58:16;;;;;;;;;;;8.70;99.90;;;8.90;82.30;100051.47;4926969;29;19934;-83
2024/03/12 06:00:44;;;;;;;;;;;8.70;99.90;;;8.76;82.34;100051.50;4927348;29;20399;-82
2024/03/12 06:03:12;;;;;;;;;;;8.70;99.90;;;8.82;82.60;100049.03;4926919;29;20288;-83
2024/03/12 06:05:41;;;;;;;;;;;8.70;99.90;;;8.74;82.32;100050.09;4943419;29;19926;-83
2024/03/12 06:08:09;;;;;;;;;;;8.70;99.90;;;8.77;82.13;100057.63;4926340;29;19937;-83
2024/03/12 06:10:40;;;;;;;;;;;8.70;99.90;;;8.77;82.42;100063.75;4926723;29;19926;-83
2024/03/12 06:13:07;;;;;;;;;;;8.70;99.90;;;8.83;82.20;100070.06;4911086;29;19970;-83
2024/03/12 06:15:34;;;;;;;;;;;8.70;99.90;;;8.83;82.04;100063.94;4943736;29;19933;-85
2024/03/12 06:18:03;;;;;;;;;;;8.70;99.90;;;8.83;81.98;100070.06;4924803;29;19930;-84
2024/03/12 06:20:31;;;;;;;;;;;8.70;99.90;;;8.86;81.83;100075.00;4941578;29;19934;-84
2024/03/12 06:22:59;;;;;;;;;;;8.70;99.90;;;8.86;82.01;100080.31;4924581;29;19946;-84
2024/03/12 06:25:28;;;;;;;;;;;8.70;99.90;;;8.88;81.88;100086.25;4941852;29;19934;-82
2024/03/12 06:27:59;;;;;;;;;;;8.70;99.90;;;8.91;81.77;100088.47;4941475;29;20525;-84
2024/03/12 06:30:28;;;;;;;;;;;8.80;99.90;;;8.93;81.63;100090.91;4925720;29;19978;-84
2024/03/12 06:32:56;;;;;;;;;;;8.80;99.90;;;8.94;81.49;100092.56;4924606;29;19931;-83
2024/03/12 06:35:23;;;;;;;;;;;8.80;99.90;;;8.93;81.70;100093.56;4942580;29;19982;-84
2024/03/12 06:37:50;;;;;;;;;;;8.80;99.90;;;8.93;81.56;100097.06;4925488;29;19981;-84
2024/03/12 06:40:19;;;;;;;;;;;8.80;99.90;;;8.84;81.39;100098.31;4942702;29;19931;-83
2024/03/12 06:42:48;;;;;;;;;;;8.70;99.90;;;8.83;81.67;100104.66;4924312;29;19982;-84
2024/03/12 06:45:17;;;;;;;;;;;8.70;99.90;;;8.84;81.59;100108.97;4923877;29;20312;-84
2024/03/12 06:47:47;;;;;;;;;;;8.70;99.90;;;8.85;81.75;100099.13;4941465;29;19951;-82
2024/03/12 06:50:16;;;;;;;;;;;8.70;99.90;;;8.85;81.58;100109.78;4942464;29;19933;-81
2024/03/12 06:52:47;;;;;;;;;;;8.70;99.90;;;8.85;81.85;100115.09;4925025;29;20336;-81
2024/03/12 06:55:15;;;;;;;;;;;8.70;99.90;;;8.87;81.77;100118.34;4941087;29;20396;-81
2024/03/12 06:57:47;;;;;;;;;;;8.70;99.90;;;8.87;81.81;100115.69;4942694;29;19927;-81
2024/03/12 07:00:26;;;;;;;;;;;8.70;99.90;;;8.89;81.68;100126.94;4925371;29;20379;-81
2024/03/12 07:02:54;;;;;;;;;;;8.80;99.90;;;8.89;81.76;100126.94;4910000;29;19927;-81
2024/03/12 07:05:25;;;;;;;;;;;8.70;99.90;;;8.90;81.90;100139.22;4942494;29;19934;-81
2024/03/12 07:07:53;;;;;;;;;;;8.80;99.90;;;8.90;81.56;100139.22;4925314;29;19933;-80
2024/03/12 07:10:22;;;;;;;;;;;8.70;99.90;;;8.91;81.60;100141.66;4940606;29;19935;-81
2024/03/12 07:12:50;;;;;;;;;;;8.80;99.90;;;8.90;81.64;100149.84;4925341;29;19927;-81
2024/03/12 07:15:19;;;;;;;;;;;8.70;99.90;;;8.89;81.77;100153.56;4925670;29;19927;-80
2024/03/12 07:17:46;;;;;;;;;;;8.70;99.90;;;8.85;81.71;100152.31;4940564;29;19927;-81
2024/03/12 07:20:15;;;;;;;;;;;8.70;99.90;;;8.86;81.85;100153.94;4924308;29;20395;-81
2024/03/12 07:22:43;;;;;;;;;;;8.70;99.90;;;8.86;81.71;100154.75;4924662;29;19927;-81
2024/03/12 07:25:11;;;;;;;;;;;8.70;99.90;;;8.88;81.61;100157.22;4924029;29;19927;-81
2024/03/12 07:27:40;;;;;;;;;;;8.70;99.90;;;8.84;81.56;100159.50;4924221;29;19927;-81
2024/03/12 07:30:10;;;;;;;;;;;8.70;99.90;;;8.70;81.98;100164.00;4909175;29;19934;-82
2024/03/12 07:32:38;;;;;;;;;;;8.70;99.90;;;8.73;82.39;100158.25;4940382;29;20030;-81
2024/03/12 07:35:06;;;;;;;;;;;8.70;99.90;;;8.73;82.15;100165.41;4940266;29;19933;-81
2024/03/12 07:37:36;;;;;;;;;;;8.60;99.90;;;8.79;81.85;100161.13;4941034;29;19927;-81
2024/03/12 07:40:04;;;;;;;;;;;8.70;99.90;;;8.82;81.99;100172.16;4923829;29;19926;-81
2024/03/12 07:42:31;;;;;;;;;;;8.70;99.90;;;8.60;81.96;100176.91;4924247;29;19926;-81
2024/03/12 07:44:58;;;;;;;;;;;8.60;99.90;;;8.63;82.37;100175.66;4924253;29;19927;-81
2024/03/12 07:47:26;;;;;;;;;;;8.60;99.90;;;8.59;82.59;100174.41;4940909;29;19927;-81
2024/03/12 07:49:55;;;;;;;;;;;8.60;99.90;;;8.57;82.78;100182.59;4924136;29;19931;-81
2024/03/12 07:52:22;;;;;;;;;;;8.50;99.90;;;8.61;82.79;100177.72;4940479;29;19927;-81
2024/03/12 07:54:49;;;;;;;;;;;8.50;99.90;;;8.66;82.77;100184.03;4941810;29;19931;-81
2024/03/12 07:57:18;;;;;;;;;;;8.60;99.90;;;8.63;82.34;100184.44;4940432;29;19926;-81
2024/03/12 07:59:46;;;;;;;;;;;8.60;99.90;;;8.65;82.41;100190.38;4941134;29;19949;-81
2024/03/12 08:02:19;;;;;;;;;;;8.60;99.90;;;8.59;82.08;100191.22;4908170;29;19926;-81
2024/03/12 08:04:47;;;;;;;;;;;8.50;99.90;;;8.53;82.42;100199.97;4924450;29;19927;-81
2024/03/12 08:07:16;;;;;;;;;;;8.50;99.90;;;8.59;82.42;100196.53;4940903;29;20006;-81
2024/03/12 08:09:43;;;;;;;;;;;8.50;99.90;;;8.59;82.46;100195.69;4940833;29;20300;-81
2024/03/12 08:12:13;;;;;;;;;;;8.50;99.90;;;8.59;82.55;100199.19;4924132;29;19927;-81
2024/03/12 08:14:40;;;;;;;;;;;8.50;99.90;;;8.58;82.36;100204.69;4940845;29;19963;-81
2024/03/12 08:17:08;;;;;;;;;;;8.50;99.90;;;8.60;82.63;100202.66;4940967;29;19931;-81
2024/03/12 08:19:37;;;;;;;;;;;8.50;99.90;;;8.64;82.53;100203.91;4941266;29;19927;-82
2024/03/12 08:22:05;;;;;;;;;;;8.60;99.90;;;8.63;82.45;100204.88;4941246;29;19926;-81
2024/03/12 08:24:33;;;;;;;;;;;8.60;99.90;;;8.67;82.66;100193.66;4907315;29;19927;-81
2024/03/12 08:27:03;;;;;;;;;;;8.60;99.90;;;8.64;82.48;100204.72;4941187;29;20056;-81
2024/03/12 08:29:30;;;;;;;;;;;8.60;99.90;;;8.64;82.83;100209.22;4940953;29;20068;-81
2024/03/12 08:31:58;;;;;;;;;;;8.60;99.90;;;8.71;82.82;100208.16;4911917;29;19934;-81
2024/03/12 08:34:25;;;;;;;;;;;8.70;99.90;;;8.75;82.82;100211.25;4945053;29;20281;-81
2024/03/12 08:36:55;;;;;;;;;;;8.70;99.90;;;8.80;82.79;100207.97;4945176;29;19934;-81
2024/03/12 08:39:27;;;;;;;;;;;8.70;99.90;;;8.82;82.60;100212.03;4927410;29;20404;-81
2024/03/12 08:41:56;;;;;;;;;;;8.70;99.90;;;8.85;82.20;100213.47;4944909;29;19934;-81
2024/03/12 08:44:23;;;;;;;;;;;8.80;99.90;;;8.83;82.53;100215.50;4928336;29;20435;-81
2024/03/12 08:46:50;;;;;;;;;;;8.70;99.90;;;8.84;82.69;100218.00;4944790;29;19927;-81
2024/03/12 08:49:18;;;;;;;;;;;8.70;99.90;;;8.86;82.64;100223.91;4927778;29;19927;-81
2024/03/12 08:51:45;;;;;;;;;;;8.80;99.90;;;8.84;82.38;100227.81;4944760;29;20345;-81
2024/03/12 08:54:13;;;;;;;;;;;8.70;99.90;;;8.82;82.33;100230.66;4927904;29;19994;-82
2024/03/12 08:56:42;;;;;;;;;;;8.70;99.90;;;8.81;82.41;100237.00;4944663;29;19974;-82
2024/03/12 08:59:15;;;;;;;;;;;8.70;99.90;;;8.86;82.52;100234.53;4926741;29;19930;-82
2024/03/12 09:01:43;;;;;;;;;;;8.80;99.90;;;8.82;82.36;100225.34;4944252;29;19978;-82
2024/03/12 09:04:10;;;;;;;;;;;8.80;99.90;;;8.79;82.49;100248.88;4944409;29;19938;-82
2024/03/12 09:06:38;;;;;;;;;;;8.70;99.90;;;8.82;82.71;100243.94;4942589;29;19978;-84
2024/03/12 09:09:05;;;;;;;;;;;8.80;99.90;;;8.79;82.64;100240.91;4908506;29;19935;-86
2024/03/12 09:11:33;;;;;;;;;;;8.70;99.90;;;8.72;83.04;100246.19;4924853;29;19927;-86
2024/03/12 09:14:00;;;;;;;;;;;8.70;99.90;;;8.76;83.19;100244.78;4924488;29;20403;-84
2024/03/12 09:16:29;;;;;;;;;;;8.70;99.90;;;8.81;83.02;100246.81;4925948;29;20403;-85
2024/03/12 09:18:56;;;;;;;;;;;8.80;99.90;;;8.83;82.78;100250.91;4925635;29;19933;-82
2024/03/12 09:21:23;;;;;;;;;;;8.80;99.90;;;8.81;82.75;100257.47;4944948;29;19993;-82
2024/03/12 09:23:54;;;;;;;;;;;8.70;99.90;;;8.80;82.51;100256.66;4943936;29;19933;-82
2024/03/12 09:26:21;;;;;;;;;;;8.70;99.90;;;8.76;82.52;100256.22;4911568;29;19927;-83
2024/03/12 09:28:49;;;;;;;;;;;8.70;99.90;;;8.71;82.27;100257.88;4943373;29;19926;-82
2024/03/12 09:31:18;;;;;;;;;;;8.70;99.90;;;8.71;82.73;100260.53;4927350;29;19926;-82
2024/03/12 09:33:47;;;;;;;;;;;8.70;99.90;;;8.65;82.48;100261.34;4944052;29;19934;-82
2024/03/12 09:36:15;;;;;;;;;;;8.70;99.90;;;8.61;83.13;100260.13;4926391;29;20024;-83
2024/03/12 09:38:43;;;;;;;;;;;8.60;99.90;;;8.60;83.31;100264.63;4926623;29;19933;-83
2024/03/12 09:41:12;;;;;;;;;;;8.60;99.90;;;8.59;83.52;100276.28;4943820;29;19934;-83
2024/03/12 09:43:43;;;;;;;;;;;8.60;99.90;;;8.69;83.84;100279.34;4927162;29;19986;-83
2024/03/12 09:46:11;;;;;;;;;;;8.70;99.90;;;8.67;83.70;100276.06;4927964;29;20291;-83
2024/03/12 09:48:39;;;;;;;;;;;8.70;99.90;;;8.67;84.23;100278.72;4926070;29;19931;-83
2024/03/12 09:51:08;;;;;;;;;;;8.70;99.90;;;8.61;83.98;100284.84;4926089;29;19989;-83
2024/03/12 09:53:36;;;;;;;;;;;8.70;99.90;;;8.58;83.78;100289.75;4943381;29;19933;-83
2024/03/12 09:56:06;;;;;;;;;;;8.70;99.90;;;8.62;84.22;100285.66;4942160;29;19962;-83
2024/03/12 09:58:35;;;;;;;;;;;8.70;99.90;;;8.68;83.94;100280.34;4926420;29;19927;-82
2024/03/12 10:01:03;;;;;;;;;;;8.70;99.90;;;8.67;83.72;100284.03;4926377;29;19949;-83
2024/03/12 10:03:35;;;;;;;;;;;8.70;99.90;;;8.69;83.44;100294.47;4943368;29;19953;-83
2024/03/12 10:06:03;;;;;;;;;;;8.70;99.90;;;8.64;83.15;100289.78;4927194;29;20009;-82
2024/03/12 10:08:32;;;;;;;;;;;8.70;99.90;;;8.66;82.82;100293.03;4909487;29;20415;-82
2024/03/12 10:11:02;;;;;;;;;;;8.70;99.90;;;8.69;82.89;100300.63;4925205;29;19927;-82
2024/03/12 10:13:29;;;;;;;;;;;8.70;99.90;;;8.71;82.96;100290.59;4943196;29;19927;-82
2024/03/12 10:15:58;;;;;;;;;;;8.70;99.90;;;8.69;83.18;100294.47;4925319;29;19927;-82
2024/03/12 10:18:27;;;;;;;;;;;8.70;99.90;;;8.78;83.18;100295.91;4925776;29;19966;-82
2024/03/12 10:20:57;;;;;;;;;;;8.70;99.90;;;8.82;83.06;100301.63;4925504;29;19931;-82
2024/03/12 10:23:25;;;;;;;;;;;8.80;99.90;;;8.86;83.06;100298.38;4925221;29;19926;-82
2024/03/12 10:26:07;;;;;;;;;;;8.80;99.90;;;8.86;82.78;100303.69;4908847;29;19955;-82
2024/03/12 10:28:35;;;;;;;;;;;8.80;99.90;;;8.87;83.00;100307.16;4942304;29;19981;-82
2024/03/12 10:31:08;;;;;;;;;;;8.80;99.90;;;8.93;83.06;100298.34;4941025;29;20025;-82
2024/03/12 10:33:36;;;;;;;;;;;8.80;99.90;;;8.89;82.86;100302.47;4925215;29;19994;-82
2024/03/12 10:36:04;;;;;;;;;;;8.80;99.90;;;8.91;83.00;100303.88;4924919;29;19966;-82
2024/03/12 10:38:32;;;;;;;;;;;8.90;99.90;;;8.94;82.84;100303.50;4924459;29;20384;-82
2024/03/12 10:41:14;;;;;;;;;;;8.90;99.90;;;8.96;82.81;100309.41;4942766;29;19927;-82
2024/03/12 10:43:41;;;;;;;;;;;8.90;99.90;;;8.95;82.58;100305.13;4940718;29;19927;-82
2024/03/12 10:46:12;;;;;;;;;;;8.90;99.90;;;8.99;82.38;100316.19;4925543;29;19927;-82
2024/03/12 10:48:40;;;;;;;;;;;8.90;99.90;;;8.98;82.47;100312.72;4926087;29;19930;-83
2024/03/12 10:51:12;;;;;;;;;;;8.90;99.90;;;8.99;82.43;100318.84;4940804;29;19934;-82
2024/03/12 10:53:39;;;;;;;;;;;8.90;99.90;;;8.93;82.34;100311.66;4925422;29;19949;-82
2024/03/12 10:56:07;;;;;;;;;;;8.90;99.90;;;8.93;82.38;100319.63;4941518;29;20393;-83
2024/03/12 10:58:34;;;;;;;;;;;8.90;99.90;;;8.94;82.32;100321.28;4941247;29;19926;-82
2024/03/12 11:01:06;;;;;;;;;;;8.90;99.90;;;8.95;82.52;100317.59;4924821;29;20422;-82
2024/03/12 11:03:34;;;;;;;;;;;8.90;99.90;;;9.00;82.56;100326.59;4938904;29;19978;-82
2024/03/12 11:06:02;;;;;;;;;;;8.90;99.90;;;9.04;82.66;100321.69;4923396;29;20402;-82
2024/03/12 11:08:30;;;;;;;;;;;9.00;99.90;;;9.06;82.69;100324.97;4923939;29;19934;-82
2024/03/12 11:10:59;;;;;;;;;;;9.00;99.90;;;9.09;82.60;100319.25;4941476;29;19927;-82
2024/03/12 11:13:27;;;;;;;;;;;9.00;99.90;;;9.10;82.67;100322.72;4923809;29;19926;-82
2024/03/12 11:15:58;;;;;;;;;;;9.00;99.90;;;9.07;82.47;100323.13;4924091;29;19974;-82
2024/03/12 11:18:35;;;;;;;;;;;9.00;99.90;;;9.09;82.47;100321.91;4941141;29;19934;-82
2024/03/12 11:21:03;;;;;;;;;;;9.00;99.90;;;9.10;82.28;100314.75;4923563;29;20022;-82
2024/03/12 11:23:31;;;;;;;;;;;9.10;99.90;;;9.11;82.09;100327.00;4907730;29;19931;-82
2024/03/12 11:25:59;;;;;;;;;;;9.00;99.90;;;9.06;82.11;100334.78;4923252;29;19926;-82
2024/03/12 11:28:28;;;;;;;;;;;9.00;99.90;;;9.07;82.39;100320.47;4922717;29;19981;-83
2024/03/12 11:31:07;;;;;;;;;;;9.00;99.90;;;9.03;82.23;100330.72;4940102;29;20021;-83
2024/03/12 11:33:46;;;;;;;;;;;9.00;99.90;;;9.02;82.54;100331.72;4920251;29;20405;-82
2024/03/12 11:36:21;;;;;;;;;;;8.90;99.90;;;9.08;82.71;100327.41;4941140;29;19927;-82
2024/03/12 11:38:49;;;;;;;;;;;9.00;99.90;;;9.08;82.37;100330.91;4922859;29;20392;-82
2024/03/12 11:41:17;;;;;;;;;;;9.00;99.90;;;9.04;82.33;100332.34;4923188;29;19926;-82